Flight Track Log - Related Links

Times and Time Zones

All times are in EST time to prevent confusion due to time zone crossing. See the RPA4319 flight status page for this flight to view local times or setup timezone preferences in your user account.

Time Position Orientation Groundspeed Altitude Reporting Facility
EST Latitude Longitude Course Direction KTS MPH feet Rate Location/Type
Tue 08:53:08 PM 39.8500 -75.3333 253° West 204 235 3,200  Level Philadelphia TRACON
Tue 08:55:03 PM 39.9236 -75.4267 316° Northwest 211 243 10,200 3,017 Climbing New York Center
Tue 08:56:03 PM 39.9808 -75.4547 339° North 236 272 12,000 1,400 Climbing New York Center
Tue 08:57:03 PM 40.0586 -75.4900 341° North 265 305 13,000 500 Climbing New York Center
Tue 08:58:03 PM 40.1261 -75.5217 340° North 279 321 13,000 400 Level New York Center
Tue 08:59:03 PM 40.2000 -75.5539 342° North 284 327 13,800 1,900 Climbing New York Center
Tue 09:00:03 PM 40.2658 -75.6236 321° Northwest 275 316 16,800 2,750 Climbing New York Center
Tue 09:01:03 PM 40.3189 -75.7036 311° West 275 316 19,300 2,650 Climbing New York Center
Tue 09:02:03 PM 40.3736 -75.7864 311° West 288 331 22,100 2,400 Climbing New York Center
Tue 09:03:03 PM 40.4092 -75.8819 296° West 294 338 24,100 1,800 Climbing New York Center
Tue 09:04:03 PM 40.4172 -75.9861 276° West 314 361 25,700 1,800 Climbing New York Center
Tue 09:05:03 PM 40.4369 -76.1047 282° West 319 367 27,700 1,150 Climbing New York Center
Tue 09:06:03 PM 40.4525 -76.2206 280° West 324 373 28,000 350 Climbing New York Center
Tue 09:07:03 PM 40.4700 -76.3367 281° West 324 373 28,400 950 Climbing New York Center
Tue 09:08:03 PM 40.4894 -76.4556 282° West 324 373 29,900 1,450 Climbing New York Center
Tue 09:09:03 PM 40.5042 -76.5794 279° West 334 384 31,300 1,550 Climbing New York Center
Tue 09:10:03 PM 40.5211 -76.6983 281° West 339 390 33,000 1,350 Climbing New York Center
Tue 09:11:03 PM 40.5383 -76.8147 281° West 333 383 34,000 500 Climbing New York Center
Tue 09:12:03 PM 40.5569 -76.9339 282° West 333 383 34,000  Level New York Center
Tue 09:13:03 PM 40.5739 -77.0500 281° West 333 383 34,000  Level New York Center
Tue 09:14:03 PM 40.5906 -77.1664 281° West 333 383 34,000  Level New York Center
Tue 09:15:03 PM 40.6072 -77.2828 281° West 333 383 34,000  Level New York Center
Tue 09:16:03 PM 40.6250 -77.4103 280° West 333 383 34,000  Level New York Center
Tue 09:17:03 PM 40.6394 -77.5267 279° West 328 377 34,000  Level New York Center
Tue 09:19:01 PM 40.6706 -77.7544 280° West 328 377 34,000  Level Cleveland Center
Tue 09:20:03 PM 40.6869 -77.8711 281° West 325 374 34,000  Level Cleveland Center
Tue 09:21:05 PM 40.7014 -77.9878 279° West 325 374 34,000  Level Cleveland Center
Tue 09:22:06 PM 40.7172 -78.1056 280° West 325 374 34,000  Level Cleveland Center
Tue 09:23:08 PM 40.7322 -78.2242 280° West 327 376 34,000  Level Cleveland Center
Tue 09:24:10 PM 40.7483 -78.3422 280° West 327 376 34,000  Level Cleveland Center
Tue 09:25:12 PM 40.7664 -78.4847 280° West 327 376 34,000  Level Cleveland Center
Tue 09:26:13 PM 40.7819 -78.6047 280° West 327 376 34,000  Level Cleveland Center
Tue 09:27:15 PM 40.7967 -78.7244 279° West 329 379 34,000  Level Cleveland Center
Tue 09:28:17 PM 40.8114 -78.8422 279° West 328 377 34,000  Level Cleveland Center
Tue 09:29:18 PM 40.8258 -78.9631 279° West 328 377 34,000  Level Cleveland Center
Tue 09:30:20 PM 40.8414 -79.0811 280° West 328 377 34,000  Level Cleveland Center
Tue 09:31:22 PM 40.8558 -79.1989 279° West 326 375 34,000  Level Cleveland Center
Tue 09:32:24 PM 40.8697 -79.3178 279° West 327 376 34,000  Level Cleveland Center
Tue 09:33:25 PM 40.8839 -79.4361 279° West 328 377 34,000  Level Cleveland Center
Tue 09:34:27 PM 40.9006 -79.5781 279° West 326 375 34,000  Level Cleveland Center
Tue 09:35:29 PM 40.9144 -79.6975 279° West 329 379 34,000  Level Cleveland Center
Tue 09:36:30 PM 40.9281 -79.8153 279° West 329 379 34,000  Level Cleveland Center
Tue 09:37:32 PM 40.9408 -79.9347 278° West 329 379 34,000  Level Cleveland Center
Tue 09:38:34 PM 40.9550 -80.0519 279° West 329 379 34,000  Level Cleveland Center
Tue 09:39:35 PM 40.9672 -80.1686 278° West 327 376 34,000  Level Cleveland Center
Tue 09:40:37 PM 40.9831 -80.3097 278° West 326 375 34,000  Level Cleveland Center
Tue 09:41:38 PM 40.9958 -80.4275 278° West 326 375 34,000  Level Cleveland Center
Tue 09:42:40 PM 41.0089 -80.5450 278° West 326 375 34,000  Level Cleveland Center
Tue 09:43:42 PM 41.0222 -80.6633 279° West 326 375 34,000  Level Cleveland Center
Tue 09:44:43 PM 41.0364 -80.7800 279° West 326 375 34,000  Level Cleveland Center
Tue 09:45:45 PM 41.0486 -80.8992 278° West 326 375 34,000  Level Cleveland Center
Tue 09:46:46 PM 41.0564 -81.0178 275° West 326 375 34,000  Level Cleveland Center
Tue 09:47:48 PM 41.0656 -81.1486 275° West 324 373 34,000  Level Cleveland Center
Tue 09:48:49 PM 41.0728 -81.2694 275° West 324 373 34,000  Level Cleveland Center
Tue 09:49:50 PM 41.0803 -81.3903 275° West 324 373 34,000  Level Cleveland Center
Tue 09:50:52 PM 41.0883 -81.5131 275° West 328 377 34,000  Level Cleveland Center
Tue 09:51:53 PM 41.0958 -81.6336 275° West 327 376 34,000  Level Cleveland Center
Tue 09:52:54 PM 41.1025 -81.7553 274° West 326 375 34,000  Level Cleveland Center
Tue 09:53:56 PM 41.1092 -81.8789 274° West 326 375 34,000  Level Cleveland Center
Tue 09:54:57 PM 41.1167 -82.0003 275° West 327 376 34,000  Level Cleveland Center
Tue 09:55:58 PM 41.1236 -82.1211 274° West 326 375 34,000  Level Cleveland Center
Tue 09:57:00 PM 41.1300 -82.2411 274° West 326 375 34,000  Level Cleveland Center
Tue 09:58:01 PM 41.1361 -82.3625 274° West 326 375 34,000  Level Cleveland Center
Tue 09:59:02 PM 41.1439 -82.5022 274° West 326 375 34,000  Level Cleveland Center
Tue 10:00:04 PM 41.1497 -82.6208 274° West 323 372 34,000  Level Cleveland Center
Tue 10:01:05 PM 41.1558 -82.7392 274° West 322 371 34,000  Level Cleveland Center
Tue 10:02:06 PM 41.1617 -82.8564 274° West 320 368 34,000  Level Cleveland Center
Tue 10:03:08 PM 41.1675 -82.9750 274° West 318 366 34,000  Level Cleveland Center
Tue 10:04:09 PM 41.1736 -83.0936 274° West 318 366 34,000  Level Cleveland Center
Tue 10:05:10 PM 41.1803 -83.2183 274° West 318 366 34,000  Level Cleveland Center
Tue 10:06:12 PM 41.1856 -83.3353 273° West 318 366 34,000  Level Cleveland Center
Tue 10:07:13 PM 41.1906 -83.4511 273° West 318 366 34,000  Level Cleveland Center
Tue 10:08:15 PM 41.1950 -83.5678 273° West 318 366 34,000  Level Cleveland Center
Tue 10:09:16 PM 41.2008 -83.6847 274° West 317 365 34,000  Level Cleveland Center
Tue 10:10:18 PM 41.2056 -83.8000 273° West 317 365 34,000  Level Cleveland Center
Tue 10:11:19 PM 41.2106 -83.9281 273° West 318 366 34,000  Level Cleveland Center
Tue 10:12:20 PM 41.2167 -84.0436 274° West 318 366 34,000  Level Cleveland Center
Tue 10:13:22 PM 41.2211 -84.1611 273° West 318 366 34,000  Level Cleveland Center
Tue 10:14:23 PM 41.2244 -84.2761 272° West 317 365 34,000  Level Cleveland Center
Tue 10:15:25 PM 41.2269 -84.3944 272° West 317 365 34,000  Level Cleveland Center
Tue 10:16:26 PM 41.2303 -84.5103 272° West 317 365 34,000  Level Cleveland Center
Tue 10:17:28 PM 41.2339 -84.6258 272° West 317 365 34,000  Level Cleveland Center
Tue 10:18:29 PM 41.2386 -84.7658 273° West 316 364 34,000  Level Cleveland Center
Tue 10:19:30 PM 41.2428 -84.8842 273° West 317 365 34,000  Level Cleveland Center
Tue 10:20:32 PM 41.2572 -85.0036 279° West 322 371 34,000  Level Cleveland Center
Tue 10:21:33 PM 41.2731 -85.1247 280° West 328 377 34,000 -293 Level Cleveland Center
Tue 10:22:35 PM 41.2889 -85.2472 280° West 334 384 33,400 -1,024 Descending Cleveland Center
Tue 10:23:36 PM 41.3050 -85.3722 280° West 338 389 31,900 -1,525 Descending Cleveland Center
Tue 10:24:37 PM 41.3208 -85.4986 280° West 339 390 30,300 -1,561 Descending Cleveland Center
Tue 10:25:39 PM 41.3367 -85.6294 279° West 352 405 28,700 -1,561 Descending Cleveland Center
Tue 10:26:40 PM 41.3536 -85.7606 280° West 354 407 27,100 -1,525 Descending Cleveland Center
Tue 10:27:41 PM 41.3683 -85.8875 279° West 348 400 25,600 -1,220 Descending Cleveland Center
Tue 10:28:43 PM 41.3836 -86.0108 279° West 341 392 24,600 -1,073 Descending Cleveland Center
Tue 10:29:44 PM 41.3992 -86.1367 279° West 342 394 23,400 -1,426 Descending Cleveland Center
Tue 10:30:45 PM 41.4161 -86.2836 279° West 338 389 21,700 -1,415 Descending Cleveland Center
Tue 10:31:47 PM 41.4286 -86.3792 280° West 334 384 20,500 -1,424 Descending Cleveland Center
Tue 10:33:04 PM 41.4458 -86.5428 278° West 319 367 18,400 -1,652 Descending Chicago Center
Tue 10:34:05 PM 41.4594 -86.6622 279° West 324 373 16,700 -1,623 Descending Chicago Center
Tue 10:35:06 PM 41.4747 -86.7886 279° West 309 356 15,100 -1,475 Descending Chicago Center
Tue 10:36:07 PM 41.4864 -86.8981 278° West 300 345 13,700 -1,268 Descending Chicago Center
Tue 10:37:09 PM 41.4994 -87.0064 279° West 296 341 12,500 -1,317 Descending Chicago Center
Tue 10:38:10 PM 41.5111 -87.1119 278° West 292 336 11,000 -738 Descending Chicago Center
Tue 10:39:11 PM 41.5456 -87.2047 296° West 283 326 11,000  Level Chicago Center
Tue 10:40:12 PM 41.5958 -87.2875 309° West 288 331 11,000 -295 Level Chicago Center
Tue 10:41:13 PM 41.6478 -87.3703 310° West 291 335 10,400 -1,463 Descending Chicago Center
Tue 10:42:15 PM 41.7011 -87.4572 309° West 258 297 8,000 -1,220 Descending Chicago Center
Tue 10:43:16 PM 41.7464 -87.5286 310° West 255 293 7,900 -492 Descending Chicago Center
Tue 10:44:17 PM 41.8150 -87.5597 341° North 265 305 7,000 -885 Descending Chicago Center
Tue 10:45:18 PM 41.8836 -87.5911 341° North 262 302 6,100 -1,426 Descending Chicago Center
Tue 10:46:19 PM 41.9422 -87.6414 327° Northwest 267 307 4,100 -1,377 Descending Chicago Center
Tue 10:47:20 PM 41.9819 -87.7092 308° West 247 284 3,300 -787 Descending Chicago Center
Tue 10:48:21 PM 41.9833 -87.7719 272° West 196 226 2,500 -787 Descending Chicago Center
Tue 10:49:22 PM 41.9844 -87.8197 272° West 159 183 1,700 -639 Descending Chicago Center
Tue 10:50:23 PM 41.9839 -87.8564 269° West 129 148 1,200 -492 Descending Chicago Center
Tue 10:52:00 PM 41.9667 -87.9000 270° West  Level FlightAware Approximate

Login

Don't have an account? Register now (free) for customized features, flight alerts, and more!